Terminal Aerodrome Forecast
Issued by NWS Salt Lake City, UT

Home | Current Version | Previous Version | Text Only | Print | Product List | Glossary On
Versions: 1 2 3 4 5 6 7 8 9 10 11 12 13 14 15 16 17 18 19 20 21 22 23 24 25 26 27 28 29 30 31 32 33 34 35 36 37 38
493
FTUS45 KSLC 192051 AAB
TAFCDC
TAF AMD
KCDC 192051Z 1921/2018 22012KT P6SM VCSH SCT040 BKN050
     FM200200 20005KT 4SM -SHSN BKN020
     FM200800 20007KT P6SM VCSH BKN030=

USA.gov is the U.S. government's official web portal to all federal, state and local government web resources and services.